sensor_id;sensor_type;location;lat;lon;timestamp;temperature;humidity
25440;DHT22;13365;52.208;5.488;2023-12-20T00:02:14;9.20;99.90
25440;DHT22;13365;52.208;5.488;2023-12-20T00:04:39;9.40;99.90
25440;DHT22;13365;52.208;5.488;2023-12-20T00:07:05;9.30;99.90
25440;DHT22;13365;52.208;5.488;2023-12-20T00:09:30;9.30;99.90
25440;DHT22;13365;52.208;5.488;2023-12-20T00:11:56;9.40;99.90
25440;DHT22;13365;52.208;5.488;2023-12-20T00:14:22;9.50;99.90
25440;DHT22;13365;52.208;5.488;2023-12-20T00:16:47;9.50;99.90
25440;DHT22;13365;52.208;5.488;2023-12-20T00:19:13;9.70;99.90
25440;DHT22;13365;52.208;5.488;2023-12-20T00:21:38;9.60;99.90
25440;DHT22;13365;52.208;5.488;2023-12-20T00:24:05;9.70;99.90
25440;DHT22;13365;52.208;5.488;2023-12-20T00:26:30;9.60;99.90
25440;DHT22;13365;52.208;5.488;2023-12-20T00:28:56;9.30;99.90
25440;DHT22;13365;52.208;5.488;2023-12-20T00:31:21;9.20;99.90
25440;DHT22;13365;52.208;5.488;2023-12-20T00:33:47;9.10;99.90
25440;DHT22;13365;52.208;5.488;2023-12-20T00:36:13;9.00;99.90
25440;DHT22;13365;52.208;5.488;2023-12-20T00:38:38;8.80;99.90
25440;DHT22;13365;52.208;5.488;2023-12-20T00:41:04;8.70;99.90
25440;DHT22;13365;52.208;5.488;2023-12-20T00:43:29;9.00;99.90
25440;DHT22;13365;52.208;5.488;2023-12-20T00:45:55;9.10;99.90
25440;DHT22;13365;52.208;5.488;2023-12-20T00:48:21;9.10;99.90
25440;DHT22;13365;52.208;5.488;2023-12-20T00:50:46;9.20;99.90
25440;DHT22;13365;52.208;5.488;2023-12-20T00:53:12;9.40;99.90
25440;DHT22;13365;52.208;5.488;2023-12-20T00:55:38;9.30;99.90
25440;DHT22;13365;52.208;5.488;2023-12-20T00:58:03;9.40;99.90
25440;DHT22;13365;52.208;5.488;2023-12-20T01:00:29;9.70;99.90
25440;DHT22;13365;52.208;5.488;2023-12-20T01:02:54;9.80;99.90
25440;DHT22;13365;52.208;5.488;2023-12-20T01:05:20;9.80;99.90
25440;DHT22;13365;52.208;5.488;2023-12-20T01:07:48;9.50;99.90
25440;DHT22;13365;52.208;5.488;2023-12-20T01:10:14;9.60;99.90
25440;DHT22;13365;52.208;5.488;2023-12-20T01:12:40;9.40;99.90
25440;DHT22;13365;52.208;5.488;2023-12-20T01:15:05;9.40;99.90
25440;DHT22;13365;52.208;5.488;2023-12-20T01:17:31;9.60;99.90
25440;DHT22;13365;52.208;5.488;2023-12-20T01:19:57;9.70;99.90
25440;DHT22;13365;52.208;5.488;2023-12-20T01:22:23;9.60;99.90
25440;DHT22;13365;52.208;5.488;2023-12-20T01:24:49;9.50;99.90
25440;DHT22;13365;52.208;5.488;2023-12-20T01:27:14;9.40;99.90
25440;DHT22;13365;52.208;5.488;2023-12-20T01:29:40;9.30;99.90
25440;DHT22;13365;52.208;5.488;2023-12-20T01:32:06;9.00;99.90
25440;DHT22;13365;52.208;5.488;2023-12-20T01:34:31;8.90;99.90
25440;DHT22;13365;52.208;5.488;2023-12-20T01:36:57;8.90;99.90
25440;DHT22;13365;52.208;5.488;2023-12-20T01:39:23;9.10;99.90
25440;DHT22;13365;52.208;5.488;2023-12-20T01:41:48;9.00;99.90
25440;DHT22;13365;52.208;5.488;2023-12-20T01:44:14;9.10;99.90
25440;DHT22;13365;52.208;5.488;2023-12-20T01:46:40;9.10;99.90
25440;DHT22;13365;52.208;5.488;2023-12-20T01:49:06;9.10;99.90
25440;DHT22;13365;52.208;5.488;2023-12-20T01:51:33;9.30;99.90
25440;DHT22;13365;52.208;5.488;2023-12-20T01:53:59;9.20;99.90
25440;DHT22;13365;52.208;5.488;2023-12-20T01:56:26;9.30;99.90
25440;DHT22;13365;52.208;5.488;2023-12-20T01:58:54;9.40;99.90
25440;DHT22;13365;52.208;5.488;2023-12-20T02:01:20;9.40;99.90
25440;DHT22;13365;52.208;5.488;2023-12-20T02:03:46;9.60;99.90
25440;DHT22;13365;52.208;5.488;2023-12-20T02:06:12;9.70;99.90
25440;DHT22;13365;52.208;5.488;2023-12-20T02:08:38;9.60;99.90
25440;DHT22;13365;52.208;5.488;2023-12-20T02:11:04;9.60;99.90
25440;DHT22;13365;52.208;5.488;2023-12-20T02:13:30;9.80;99.90
25440;DHT22;13365;52.208;5.488;2023-12-20T02:15:56;10.00;99.90
25440;DHT22;13365;52.208;5.488;2023-12-20T02:18:22;10.40;99.90
25440;DHT22;13365;52.208;5.488;2023-12-20T02:20:48;10.50;99.90
25440;DHT22;13365;52.208;5.488;2023-12-20T02:23:13;10.70;99.90
25440;DHT22;13365;52.208;5.488;2023-12-20T02:25:39;10.70;99.90
25440;DHT22;13365;52.208;5.488;2023-12-20T02:28:05;10.60;99.90
25440;DHT22;13365;52.208;5.488;2023-12-20T02:30:32;10.70;99.90
25440;DHT22;13365;52.208;5.488;2023-12-20T02:32:59;10.70;99.90
25440;DHT22;13365;52.208;5.488;2023-12-20T02:35:25;10.60;99.90
25440;DHT22;13365;52.208;5.488;2023-12-20T02:37:51;10.50;99.90
25440;DHT22;13365;52.208;5.488;2023-12-20T02:40:16;10.50;99.90
25440;DHT22;13365;52.208;5.488;2023-12-20T02:42:42;10.10;99.90
25440;DHT22;13365;52.208;5.488;2023-12-20T02:45:08;9.80;99.90
25440;DHT22;13365;52.208;5.488;2023-12-20T02:47:33;9.80;99.90
25440;DHT22;13365;52.208;5.488;2023-12-20T02:49:59;9.80;99.90
25440;DHT22;13365;52.208;5.488;2023-12-20T02:52:25;9.60;99.90
25440;DHT22;13365;52.208;5.488;2023-12-20T02:54:50;9.50;99.90
25440;DHT22;13365;52.208;5.488;2023-12-20T02:57:16;9.70;99.90
25440;DHT22;13365;52.208;5.488;2023-12-20T02:59:41;9.80;99.90
25440;DHT22;13365;52.208;5.488;2023-12-20T03:02:07;9.90;99.90
25440;DHT22;13365;52.208;5.488;2023-12-20T03:04:33;10.20;99.90
25440;DHT22;13365;52.208;5.488;2023-12-20T03:06:58;10.40;99.90
25440;DHT22;13365;52.208;5.488;2023-12-20T03:09:24;10.30;99.90
25440;DHT22;13365;52.208;5.488;2023-12-20T03:11:50;10.30;99.90
25440;DHT22;13365;52.208;5.488;2023-12-20T03:14:15;10.60;99.90
25440;DHT22;13365;52.208;5.488;2023-12-20T03:16:41;10.60;99.90
25440;DHT22;13365;52.208;5.488;2023-12-20T03:19:06;10.40;99.90
25440;DHT22;13365;52.208;5.488;2023-12-20T03:21:32;9.60;99.90
25440;DHT22;13365;52.208;5.488;2023-12-20T03:23:57;9.40;99.90
25440;DHT22;13365;52.208;5.488;2023-12-20T03:26:23;9.00;99.90
25440;DHT22;13365;52.208;5.488;2023-12-20T03:28:49;9.00;99.90
25440;DHT22;13365;52.208;5.488;2023-12-20T03:31:14;9.00;99.90
25440;DHT22;13365;52.208;5.488;2023-12-20T03:33:40;9.10;99.90
25440;DHT22;13365;52.208;5.488;2023-12-20T03:36:06;9.20;99.90
25440;DHT22;13365;52.208;5.488;2023-12-20T03:38:31;9.10;99.90
25440;DHT22;13365;52.208;5.488;2023-12-20T03:40:57;9.20;99.90
25440;DHT22;13365;52.208;5.488;2023-12-20T03:43:22;9.30;99.90
25440;DHT22;13365;52.208;5.488;2023-12-20T03:45:48;9.40;99.90
25440;DHT22;13365;52.208;5.488;2023-12-20T03:48:13;9.20;99.90
25440;DHT22;13365;52.208;5.488;2023-12-20T03:50:39;9.20;99.90
25440;DHT22;13365;52.208;5.488;2023-12-20T03:53:04;9.40;99.90
25440;DHT22;13365;52.208;5.488;2023-12-20T03:55:30;9.20;99.90
25440;DHT22;13365;52.208;5.488;2023-12-20T03:57:56;9.10;99.90
25440;DHT22;13365;52.208;5.488;2023-12-20T04:00:21;9.30;99.90
25440;DHT22;13365;52.208;5.488;2023-12-20T04:02:47;9.40;99.90
25440;DHT22;13365;52.208;5.488;2023-12-20T04:05:12;9.60;99.90
25440;DHT22;13365;52.208;5.488;2023-12-20T04:07:38;9.60;99.90
25440;DHT22;13365;52.208;5.488;2023-12-20T04:10:04;9.50;99.90
25440;DHT22;13365;52.208;5.488;2023-12-20T04:12:30;9.30;99.90
25440;DHT22;13365;52.208;5.488;2023-12-20T04:14:56;9.20;99.90
25440;DHT22;13365;52.208;5.488;2023-12-20T04:17:22;9.40;99.90
25440;DHT22;13365;52.208;5.488;2023-12-20T04:19:49;9.40;99.90
25440;DHT22;13365;52.208;5.488;2023-12-20T04:22:14;9.30;99.90
25440;DHT22;13365;52.208;5.488;2023-12-20T04:24:40;9.50;99.90
25440;DHT22;13365;52.208;5.488;2023-12-20T04:27:07;9.70;99.90
25440;DHT22;13365;52.208;5.488;2023-12-20T04:29:33;9.60;99.90
25440;DHT22;13365;52.208;5.488;2023-12-20T04:31:59;9.50;99.90
25440;DHT22;13365;52.208;5.488;2023-12-20T04:34:24;9.70;99.90
25440;DHT22;13365;52.208;5.488;2023-12-20T04:36:50;9.60;99.90
25440;DHT22;13365;52.208;5.488;2023-12-20T04:39:15;9.50;99.90
25440;DHT22;13365;52.208;5.488;2023-12-20T04:41:41;9.60;99.90
25440;DHT22;13365;52.208;5.488;2023-12-20T04:44:07;9.70;99.90
25440;DHT22;13365;52.208;5.488;2023-12-20T04:46:32;9.70;99.90
25440;DHT22;13365;52.208;5.488;2023-12-20T04:48:58;9.70;99.90
25440;DHT22;13365;52.208;5.488;2023-12-20T04:51:23;9.60;99.90
25440;DHT22;13365;52.208;5.488;2023-12-20T04:53:49;9.70;99.90
25440;DHT22;13365;52.208;5.488;2023-12-20T04:56:15;9.50;99.90
25440;DHT22;13365;52.208;5.488;2023-12-20T04:58:41;9.80;99.90
25440;DHT22;13365;52.208;5.488;2023-12-20T05:01:08;10.00;99.90
25440;DHT22;13365;52.208;5.488;2023-12-20T05:03:35;10.00;99.90
25440;DHT22;13365;52.208;5.488;2023-12-20T05:06:00;9.90;99.90
25440;DHT22;13365;52.208;5.488;2023-12-20T05:08:26;9.80;99.90
25440;DHT22;13365;52.208;5.488;2023-12-20T05:10:54;10.00;99.90
25440;DHT22;13365;52.208;5.488;2023-12-20T05:13:19;10.30;99.90
25440;DHT22;13365;52.208;5.488;2023-12-20T05:15:45;10.20;99.90
25440;DHT22;13365;52.208;5.488;2023-12-20T05:18:11;10.30;99.90
25440;DHT22;13365;52.208;5.488;2023-12-20T05:20:36;10.20;99.90
25440;DHT22;13365;52.208;5.488;2023-12-20T05:23:02;10.20;99.90
25440;DHT22;13365;52.208;5.488;2023-12-20T05:25:28;10.00;99.90
25440;DHT22;13365;52.208;5.488;2023-12-20T05:27:53;9.90;99.90
25440;DHT22;13365;52.208;5.488;2023-12-20T05:30:19;9.90;99.90
25440;DHT22;13365;52.208;5.488;2023-12-20T05:32:44;10.00;99.90
25440;DHT22;13365;52.208;5.488;2023-12-20T05:35:10;10.00;99.90
25440;DHT22;13365;52.208;5.488;2023-12-20T05:37:36;10.10;99.90
25440;DHT22;13365;52.208;5.488;2023-12-20T05:40:01;9.90;99.90
25440;DHT22;13365;52.208;5.488;2023-12-20T05:42:27;9.40;99.90
25440;DHT22;13365;52.208;5.488;2023-12-20T05:44:52;9.60;99.90
25440;DHT22;13365;52.208;5.488;2023-12-20T05:47:18;9.80;99.90
25440;DHT22;13365;52.208;5.488;2023-12-20T05:49:44;10.10;99.90
25440;DHT22;13365;52.208;5.488;2023-12-20T05:52:09;9.90;99.90
25440;DHT22;13365;52.208;5.488;2023-12-20T05:54:35;10.00;99.90
25440;DHT22;13365;52.208;5.488;2023-12-20T05:57:00;9.80;99.90
25440;DHT22;13365;52.208;5.488;2023-12-20T05:59:26;9.80;99.90
25440;DHT22;13365;52.208;5.488;2023-12-20T06:01:52;10.00;99.90
25440;DHT22;13365;52.208;5.488;2023-12-20T06:04:17;9.80;99.90
25440;DHT22;13365;52.208;5.488;2023-12-20T06:06:43;9.70;99.90
25440;DHT22;13365;52.208;5.488;2023-12-20T06:09:09;9.80;99.90
25440;DHT22;13365;52.208;5.488;2023-12-20T06:11:35;9.70;99.90
25440;DHT22;13365;52.208;5.488;2023-12-20T06:14:01;9.70;99.90
25440;DHT22;13365;52.208;5.488;2023-12-20T06:16:26;9.70;99.90
25440;DHT22;13365;52.208;5.488;2023-12-20T06:18:52;9.60;99.90
25440;DHT22;13365;52.208;5.488;2023-12-20T06:21:17;9.90;99.90
25440;DHT22;13365;52.208;5.488;2023-12-20T06:23:43;9.70;99.90
25440;DHT22;13365;52.208;5.488;2023-12-20T06:26:09;9.80;99.90
25440;DHT22;13365;52.208;5.488;2023-12-20T06:28:34;9.90;99.90
25440;DHT22;13365;52.208;5.488;2023-12-20T06:31:00;10.00;99.90
25440;DHT22;13365;52.208;5.488;2023-12-20T06:33:26;10.20;99.90
25440;DHT22;13365;52.208;5.488;2023-12-20T06:35:51;10.10;99.90
25440;DHT22;13365;52.208;5.488;2023-12-20T06:38:18;10.10;99.90
25440;DHT22;13365;52.208;5.488;2023-12-20T06:40:44;10.20;99.90
25440;DHT22;13365;52.208;5.488;2023-12-20T06:43:10;10.00;99.90
25440;DHT22;13365;52.208;5.488;2023-12-20T06:45:35;9.90;99.90
25440;DHT22;13365;52.208;5.488;2023-12-20T06:48:01;9.90;99.90
25440;DHT22;13365;52.208;5.488;2023-12-20T06:50:26;10.00;99.90
25440;DHT22;13365;52.208;5.488;2023-12-20T06:52:53;10.00;99.90
25440;DHT22;13365;52.208;5.488;2023-12-20T06:55:18;9.90;99.90
25440;DHT22;13365;52.208;5.488;2023-12-20T06:57:44;10.00;99.90
25440;DHT22;13365;52.208;5.488;2023-12-20T07:00:11;10.20;99.90
25440;DHT22;13365;52.208;5.488;2023-12-20T07:02:37;10.20;99.90
25440;DHT22;13365;52.208;5.488;2023-12-20T07:05:03;10.40;99.90
25440;DHT22;13365;52.208;5.488;2023-12-20T07:07:29;10.10;99.90
25440;DHT22;13365;52.208;5.488;2023-12-20T07:09:56;10.10;99.90
25440;DHT22;13365;52.208;5.488;2023-12-20T07:12:22;10.30;99.90
25440;DHT22;13365;52.208;5.488;2023-12-20T07:14:47;10.10;99.90
25440;DHT22;13365;52.208;5.488;2023-12-20T07:17:13;10.10;99.90
25440;DHT22;13365;52.208;5.488;2023-12-20T07:19:40;10.10;99.90
25440;DHT22;13365;52.208;5.488;2023-12-20T07:22:06;10.30;99.90
25440;DHT22;13365;52.208;5.488;2023-12-20T07:24:32;10.40;99.90
25440;DHT22;13365;52.208;5.488;2023-12-20T07:26:59;10.40;99.90
25440;DHT22;13365;52.208;5.488;2023-12-20T07:29:25;10.30;99.90
25440;DHT22;13365;52.208;5.488;2023-12-20T07:31:51;10.30;99.90
25440;DHT22;13365;52.208;5.488;2023-12-20T07:34:18;10.30;99.90
25440;DHT22;13365;52.208;5.488;2023-12-20T07:36:44;10.20;99.90
25440;DHT22;13365;52.208;5.488;2023-12-20T07:39:10;10.30;99.90
25440;DHT22;13365;52.208;5.488;2023-12-20T07:41:36;10.40;99.90
25440;DHT22;13365;52.208;5.488;2023-12-20T07:44:01;10.60;99.90
25440;DHT22;13365;52.208;5.488;2023-12-20T07:46:27;10.40;99.90
25440;DHT22;13365;52.208;5.488;2023-12-20T07:48:52;10.30;99.90
25440;DHT22;13365;52.208;5.488;2023-12-20T07:51:18;10.30;99.90
25440;DHT22;13365;52.208;5.488;2023-12-20T07:53:44;10.40;99.90
25440;DHT22;13365;52.208;5.488;2023-12-20T07:56:16;10.30;99.90
25440;DHT22;13365;52.208;5.488;2023-12-20T07:58:42;10.40;99.90
25440;DHT22;13365;52.208;5.488;2023-12-20T08:01:08;10.30;99.90
25440;DHT22;13365;52.208;5.488;2023-12-20T08:03:34;10.50;99.90
25440;DHT22;13365;52.208;5.488;2023-12-20T08:05:59;10.50;99.90
25440;DHT22;13365;52.208;5.488;2023-12-20T08:08:26;10.30;99.90
25440;DHT22;13365;52.208;5.488;2023-12-20T08:10:51;10.00;99.90
25440;DHT22;13365;52.208;5.488;2023-12-20T08:13:17;10.30;99.90
25440;DHT22;13365;52.208;5.488;2023-12-20T08:15:42;10.40;99.90
25440;DHT22;13365;52.208;5.488;2023-12-20T08:18:08;10.70;99.90
25440;DHT22;13365;52.208;5.488;2023-12-20T08:20:33;10.70;99.90
25440;DHT22;13365;52.208;5.488;2023-12-20T08:22:59;10.60;99.90
25440;DHT22;13365;52.208;5.488;2023-12-20T08:25:24;10.30;99.90
25440;DHT22;13365;52.208;5.488;2023-12-20T08:27:50;10.40;99.90
25440;DHT22;13365;52.208;5.488;2023-12-20T08:30:15;10.20;99.90
25440;DHT22;13365;52.208;5.488;2023-12-20T08:32:46;10.20;99.90
25440;DHT22;13365;52.208;5.488;2023-12-20T08:35:11;10.10;99.90
25440;DHT22;13365;52.208;5.488;2023-12-20T08:37:37;10.50;99.90
25440;DHT22;13365;52.208;5.488;2023-12-20T08:40:03;10.20;99.90
25440;DHT22;13365;52.208;5.488;2023-12-20T08:42:28;10.20;99.90
25440;DHT22;13365;52.208;5.488;2023-12-20T08:44:57;10.20;99.90
25440;DHT22;13365;52.208;5.488;2023-12-20T08:47:24;10.00;99.90
25440;DHT22;13365;52.208;5.488;2023-12-20T08:49:49;10.10;99.90
25440;DHT22;13365;52.208;5.488;2023-12-20T08:52:17;10.40;99.90
25440;DHT22;13365;52.208;5.488;2023-12-20T08:54:43;10.60;99.90
25440;DHT22;13365;52.208;5.488;2023-12-20T08:57:08;10.50;99.90
25440;DHT22;13365;52.208;5.488;2023-12-20T08:59:34;10.60;99.90
25440;DHT22;13365;52.208;5.488;2023-12-20T09:01:59;10.80;99.90
25440;DHT22;13365;52.208;5.488;2023-12-20T09:04:25;10.80;99.90
25440;DHT22;13365;52.208;5.488;2023-12-20T09:06:50;10.90;99.90
25440;DHT22;13365;52.208;5.488;2023-12-20T09:09:16;11.10;99.90
25440;DHT22;13365;52.208;5.488;2023-12-20T09:11:41;11.20;99.90
25440;DHT22;13365;52.208;5.488;2023-12-20T09:14:07;11.10;99.90
25440;DHT22;13365;52.208;5.488;2023-12-20T09:16:33;10.60;99.90
25440;DHT22;13365;52.208;5.488;2023-12-20T09:18:59;10.80;99.90
25440;DHT22;13365;52.208;5.488;2023-12-20T09:21:24;10.60;99.90
25440;DHT22;13365;52.208;5.488;2023-12-20T09:23:50;10.40;99.90
25440;DHT22;13365;52.208;5.488;2023-12-20T09:26:15;10.50;99.90
25440;DHT22;13365;52.208;5.488;2023-12-20T09:28:41;10.50;99.90
25440;DHT22;13365;52.208;5.488;2023-12-20T09:31:07;10.30;99.90
25440;DHT22;13365;52.208;5.488;2023-12-20T09:33:35;10.40;99.90
25440;DHT22;13365;52.208;5.488;2023-12-20T09:36:01;10.40;99.90
25440;DHT22;13365;52.208;5.488;2023-12-20T09:38:26;10.50;99.90
25440;DHT22;13365;52.208;5.488;2023-12-20T09:40:52;10.40;99.90
25440;DHT22;13365;52.208;5.488;2023-12-20T09:43:20;10.50;99.90
25440;DHT22;13365;52.208;5.488;2023-12-20T09:45:46;10.50;99.90
25440;DHT22;13365;52.208;5.488;2023-12-20T09:48:12;10.70;99.90
25440;DHT22;13365;52.208;5.488;2023-12-20T09:50:40;10.60;99.90
25440;DHT22;13365;52.208;5.488;2023-12-20T09:53:08;10.50;99.90
25440;DHT22;13365;52.208;5.488;2023-12-20T09:55:36;10.60;99.90
25440;DHT22;13365;52.208;5.488;2023-12-20T09:58:02;10.70;99.90
25440;DHT22;13365;52.208;5.488;2023-12-20T10:00:28;10.80;99.90
25440;DHT22;13365;52.208;5.488;2023-12-20T10:02:56;10.60;99.90
25440;DHT22;13365;52.208;5.488;2023-12-20T10:05:30;10.70;99.90
25440;DHT22;13365;52.208;5.488;2023-12-20T10:07:56;10.70;99.90
25440;DHT22;13365;52.208;5.488;2023-12-20T10:10:22;10.90;99.90
25440;DHT22;13365;52.208;5.488;2023-12-20T10:13:08;10.90;99.90
25440;DHT22;13365;52.208;5.488;2023-12-20T10:15:35;11.10;99.90
25440;DHT22;13365;52.208;5.488;2023-12-20T10:18:01;10.80;99.90
25440;DHT22;13365;52.208;5.488;2023-12-20T10:20:28;10.90;99.90
25440;DHT22;13365;52.208;5.488;2023-12-20T10:22:57;11.00;99.90
25440;DHT22;13365;52.208;5.488;2023-12-20T10:25:23;11.00;99.90
25440;DHT22;13365;52.208;5.488;2023-12-20T10:27:50;11.00;99.90
25440;DHT22;13365;52.208;5.488;2023-12-20T10:30:16;11.10;99.90
25440;DHT22;13365;52.208;5.488;2023-12-20T10:32:42;11.20;99.90
25440;DHT22;13365;52.208;5.488;2023-12-20T10:35:08;11.40;99.90
25440;DHT22;13365;52.208;5.488;2023-12-20T10:37:37;11.30;99.90
25440;DHT22;13365;52.208;5.488;2023-12-20T10:40:04;11.20;99.90
25440;DHT22;13365;52.208;5.488;2023-12-20T10:42:32;11.30;99.90
25440;DHT22;13365;52.208;5.488;2023-12-20T10:44:59;11.30;99.90
25440;DHT22;13365;52.208;5.488;2023-12-20T10:47:25;11.30;99.90
25440;DHT22;13365;52.208;5.488;2023-12-20T10:49:52;11.50;99.90
25440;DHT22;13365;52.208;5.488;2023-12-20T10:52:19;11.80;99.90
25440;DHT22;13365;52.208;5.488;2023-12-20T10:54:47;11.70;99.90
25440;DHT22;13365;52.208;5.488;2023-12-20T10:57:13;11.50;99.90
25440;DHT22;13365;52.208;5.488;2023-12-20T10:59:43;11.30;99.90
25440;DHT22;13365;52.208;5.488;2023-12-20T11:02:11;11.50;99.90
25440;DHT22;13365;52.208;5.488;2023-12-20T11:04:57;11.50;99.90
25440;DHT22;13365;52.208;5.488;2023-12-20T11:07:38;11.50;99.90
25440;DHT22;13365;52.208;5.488;2023-12-20T11:10:29;11.40;99.90
25440;DHT22;13365;52.208;5.488;2023-12-20T11:13:12;11.30;99.90
25440;DHT22;13365;52.208;5.488;2023-12-20T11:15:42;11.20;99.90
25440;DHT22;13365;52.208;5.488;2023-12-20T11:18:09;11.40;99.90
25440;DHT22;13365;52.208;5.488;2023-12-20T11:20:39;11.70;99.90
25440;DHT22;13365;52.208;5.488;2023-12-20T11:23:06;11.70;99.90
25440;DHT22;13365;52.208;5.488;2023-12-20T11:25:52;11.60;99.90
25440;DHT22;13365;52.208;5.488;2023-12-20T11:28:21;11.70;99.90
25440;DHT22;13365;52.208;5.488;2023-12-20T11:30:53;11.60;99.90
25440;DHT22;13365;52.208;5.488;2023-12-20T11:33:24;11.50;99.90
25440;DHT22;13365;52.208;5.488;2023-12-20T11:35:50;11.80;99.90
25440;DHT22;13365;52.208;5.488;2023-12-20T11:38:16;11.90;99.90
25440;DHT22;13365;52.208;5.488;2023-12-20T11:40:42;11.80;99.90
25440;DHT22;13365;52.208;5.488;2023-12-20T11:43:09;11.90;99.90
25440;DHT22;13365;52.208;5.488;2023-12-20T11:45:35;11.90;99.90
25440;DHT22;13365;52.208;5.488;2023-12-20T11:48:02;12.00;99.90
25440;DHT22;13365;52.208;5.488;2023-12-20T11:50:28;11.80;99.90
25440;DHT22;13365;52.208;5.488;2023-12-20T11:52:56;11.80;99.90
25440;DHT22;13365;52.208;5.488;2023-12-20T11:55:22;11.90;99.90
25440;DHT22;13365;52.208;5.488;2023-12-20T11:57:50;11.80;99.90
25440;DHT22;13365;52.208;5.488;2023-12-20T12:00:16;11.60;99.90
25440;DHT22;13365;52.208;5.488;2023-12-20T12:02:42;11.90;99.90
25440;DHT22;13365;52.208;5.488;2023-12-20T12:05:08;12.20;99.90
25440;DHT22;13365;52.208;5.488;2023-12-20T12:07:34;11.90;99.90
25440;DHT22;13365;52.208;5.488;2023-12-20T12:10:00;12.00;99.90
25440;DHT22;13365;52.208;5.488;2023-12-20T12:12:26;12.00;99.90
25440;DHT22;13365;52.208;5.488;2023-12-20T12:14:53;11.90;99.90
25440;DHT22;13365;52.208;5.488;2023-12-20T12:17:19;11.80;99.90
25440;DHT22;13365;52.208;5.488;2023-12-20T12:19:45;11.50;99.90
25440;DHT22;13365;52.208;5.488;2023-12-20T12:22:13;11.60;99.90
25440;DHT22;13365;52.208;5.488;2023-12-20T12:24:43;11.60;99.90
25440;DHT22;13365;52.208;5.488;2023-12-20T12:27:10;11.70;99.90
25440;DHT22;13365;52.208;5.488;2023-12-20T12:29:36;11.50;99.90
25440;DHT22;13365;52.208;5.488;2023-12-20T12:32:05;11.70;99.90
25440;DHT22;13365;52.208;5.488;2023-12-20T12:34:32;11.80;99.90
25440;DHT22;13365;52.208;5.488;2023-12-20T12:36:59;11.60;99.90
25440;DHT22;13365;52.208;5.488;2023-12-20T12:39:25;11.70;99.90
25440;DHT22;13365;52.208;5.488;2023-12-20T12:41:51;11.90;99.90
25440;DHT22;13365;52.208;5.488;2023-12-20T12:44:17;11.80;99.90
25440;DHT22;13365;52.208;5.488;2023-12-20T12:46:44;11.70;99.90
25440;DHT22;13365;52.208;5.488;2023-12-20T12:49:09;11.90;99.90
25440;DHT22;13365;52.208;5.488;2023-12-20T12:51:35;12.00;99.90
25440;DHT22;13365;52.208;5.488;2023-12-20T12:54:01;11.90;99.90
25440;DHT22;13365;52.208;5.488;2023-12-20T12:56:26;11.90;99.90
25440;DHT22;13365;52.208;5.488;2023-12-20T12:58:52;11.70;99.90
25440;DHT22;13365;52.208;5.488;2023-12-20T13:01:17;11.60;99.90
25440;DHT22;13365;52.208;5.488;2023-12-20T13:03:43;11.60;99.90
25440;DHT22;13365;52.208;5.488;2023-12-20T13:06:08;11.80;99.90
25440;DHT22;13365;52.208;5.488;2023-12-20T13:08:34;11.60;99.90
25440;DHT22;13365;52.208;5.488;2023-12-20T13:11:00;11.40;99.90
25440;DHT22;13365;52.208;5.488;2023-12-20T13:13:29;11.60;99.90
25440;DHT22;13365;52.208;5.488;2023-12-20T13:15:55;11.60;99.90
25440;DHT22;13365;52.208;5.488;2023-12-20T13:18:21;11.60;99.90
25440;DHT22;13365;52.208;5.488;2023-12-20T13:20:47;11.40;99.90
25440;DHT22;13365;52.208;5.488;2023-12-20T13:23:13;11.60;99.90
25440;DHT22;13365;52.208;5.488;2023-12-20T13:25:39;11.80;99.90
25440;DHT22;13365;52.208;5.488;2023-12-20T13:28:05;11.40;99.90
25440;DHT22;13365;52.208;5.488;2023-12-20T13:30:31;11.60;99.90
25440;DHT22;13365;52.208;5.488;2023-12-20T13:32:57;11.40;99.90
25440;DHT22;13365;52.208;5.488;2023-12-20T13:35:22;11.50;99.90
25440;DHT22;13365;52.208;5.488;2023-12-20T13:37:48;11.60;99.90
25440;DHT22;13365;52.208;5.488;2023-12-20T13:40:13;11.60;99.90
25440;DHT22;13365;52.208;5.488;2023-12-20T13:42:39;11.40;99.90
25440;DHT22;13365;52.208;5.488;2023-12-20T13:45:05;11.60;99.90
25440;DHT22;13365;52.208;5.488;2023-12-20T13:47:32;11.30;99.90
25440;DHT22;13365;52.208;5.488;2023-12-20T13:49:58;11.40;99.90
25440;DHT22;13365;52.208;5.488;2023-12-20T13:52:23;11.60;99.90
25440;DHT22;13365;52.208;5.488;2023-12-20T13:54:49;11.60;99.90
25440;DHT22;13365;52.208;5.488;2023-12-20T13:57:15;11.70;99.90
25440;DHT22;13365;52.208;5.488;2023-12-20T13:59:40;11.60;99.90
25440;DHT22;13365;52.208;5.488;2023-12-20T14:02:06;11.70;99.90
25440;DHT22;13365;52.208;5.488;2023-12-20T14:04:32;11.70;99.90
25440;DHT22;13365;52.208;5.488;2023-12-20T14:06:57;11.60;99.90
25440;DHT22;13365;52.208;5.488;2023-12-20T14:09:23;11.70;99.90
25440;DHT22;13365;52.208;5.488;2023-12-20T14:11:49;11.70;99.90
25440;DHT22;13365;52.208;5.488;2023-12-20T14:14:14;11.70;99.90
25440;DHT22;13365;52.208;5.488;2023-12-20T14:16:40;11.80;99.90
25440;DHT22;13365;52.208;5.488;2023-12-20T14:19:06;11.60;99.90
25440;DHT22;13365;52.208;5.488;2023-12-20T14:21:34;11.90;99.90
25440;DHT22;13365;52.208;5.488;2023-12-20T14:24:00;11.90;99.90
25440;DHT22;13365;52.208;5.488;2023-12-20T14:26:25;11.20;99.90
25440;DHT22;13365;52.208;5.488;2023-12-20T14:28:53;11.20;99.90
25440;DHT22;13365;52.208;5.488;2023-12-20T14:31:19;11.10;99.90
25440;DHT22;13365;52.208;5.488;2023-12-20T14:33:44;11.30;99.90
25440;DHT22;13365;52.208;5.488;2023-12-20T14:36:14;11.30;99.90
25440;DHT22;13365;52.208;5.488;2023-12-20T14:38:40;11.60;99.90
25440;DHT22;13365;52.208;5.488;2023-12-20T14:41:06;11.70;99.90
25440;DHT22;13365;52.208;5.488;2023-12-20T14:43:34;11.80;99.90
25440;DHT22;13365;52.208;5.488;2023-12-20T14:45:59;11.70;99.90
25440;DHT22;13365;52.208;5.488;2023-12-20T14:48:25;11.80;99.90
25440;DHT22;13365;52.208;5.488;2023-12-20T14:50:52;11.70;99.90
25440;DHT22;13365;52.208;5.488;2023-12-20T14:53:18;11.60;99.90
25440;DHT22;13365;52.208;5.488;2023-12-20T14:55:44;11.70;99.90
25440;DHT22;13365;52.208;5.488;2023-12-20T14:58:10;11.70;99.90
25440;DHT22;13365;52.208;5.488;2023-12-20T15:00:35;11.50;99.90
25440;DHT22;13365;52.208;5.488;2023-12-20T15:03:01;11.80;99.90
25440;DHT22;13365;52.208;5.488;2023-12-20T15:05:27;11.90;99.90
25440;DHT22;13365;52.208;5.488;2023-12-20T15:07:52;11.30;99.90
25440;DHT22;13365;52.208;5.488;2023-12-20T15:10:18;11.40;99.90
25440;DHT22;13365;52.208;5.488;2023-12-20T15:12:44;11.50;99.90
25440;DHT22;13365;52.208;5.488;2023-12-20T15:15:11;11.40;99.90
25440;DHT22;13365;52.208;5.488;2023-12-20T15:17:36;11.60;99.90
25440;DHT22;13365;52.208;5.488;2023-12-20T15:20:03;11.80;99.90
25440;DHT22;13365;52.208;5.488;2023-12-20T15:22:30;11.60;99.90
25440;DHT22;13365;52.208;5.488;2023-12-20T15:24:55;11.90;99.90
25440;DHT22;13365;52.208;5.488;2023-12-20T15:27:21;12.00;99.90
25440;DHT22;13365;52.208;5.488;2023-12-20T15:29:47;11.80;99.90